Time;durP1;ratioP1;P1;durP2;ratioP2;P2;SDS_P1;SDS_P2;PMS_P1;PMS_P2;Temp;Humidity;BMP_temperature;BMP_pressure;BME280_temperature;BME280_humidity;BME280_pressure;Samples;Min_cycle;Max_cycle;Signal;HPM_P1;HPM_P2
2023/04/11 00:01:58;;;;;;;9.38;6.43;;;;;;;10.37;63.68;100432.28;4934570;29;20044;-80
2023/04/11 00:04:25;;;;;;;9.13;6.70;;;;;;;10.35;63.81;100425.31;4915185;29;20490;-82
2023/04/11 00:06:53;;;;;;;9.45;6.90;;;;;;;10.30;62.47;100425.38;4913044;29;20043;-82
2023/04/11 00:09:21;;;;;;;9.52;6.47;;;;;;;10.38;63.17;100427.84;4949663;28;20046;-83
2023/04/11 00:11:49;;;;;;;10.57;7.07;;;;;;;10.41;62.86;100420.72;4917962;29;20047;-81
2023/04/11 00:14:19;;;;;;;9.38;6.90;;;;;;;10.44;62.32;100409.25;4918085;29;20050;-80
2023/04/11 00:16:52;;;;;;;10.73;7.07;;;;;;;10.39;61.93;100409.34;4928303;29;20130;-81
2023/04/11 00:19:24;;;;;;;8.07;6.15;;;;;;;10.40;62.11;100403.13;4958067;28;20561;-81
2023/04/11 00:21:51;;;;;;;7.72;6.20;;;;;;;10.40;62.06;100391.72;4916583;29;20044;-80
2023/04/11 00:24:17;;;;;;;10.35;6.43;;;;;;;10.37;63.10;100390.03;4932194;28;20140;-82
2023/04/11 00:26:44;;;;;;;9.00;6.35;;;;;;;10.44;62.41;100380.19;4914761;28;20102;-80
2023/04/11 00:29:11;;;;;;;9.27;7.22;;;;;;;10.38;61.70;100380.31;4947796;29;20051;-82
2023/04/11 00:31:37;;;;;;;10.45;6.90;;;;;;;10.39;62.33;100380.28;4946637;28;20038;-83
2023/04/11 00:34:04;;;;;;;8.48;6.38;;;;;;;10.36;62.63;100367.16;4952913;28;20082;-81
2023/04/11 00:36:31;;;;;;;10.27;7.13;;;;;;;10.37;63.05;100360.97;4921199;29;20039;-81
2023/04/11 00:39:00;;;;;;;9.35;6.05;;;;;;;10.32;63.84;100362.84;4931205;29;20047;-80
2023/04/11 00:41:29;;;;;;;9.27;6.22;;;;;;;10.27;62.80;100356.81;4957734;28;20055;-82
2023/04/11 00:43:56;;;;;;;8.48;6.45;;;;;;;10.36;63.35;100355.72;4916812;29;20517;-81
2023/04/11 00:46:23;;;;;;;8.05;5.93;;;;;;;10.30;62.50;100351.47;4922929;29;20077;-81
2023/04/11 00:48:51;;;;;;;9.00;7.03;;;;;;;10.35;62.11;100344.31;4933133;29;20051;-81
2023/04/11 00:51:18;;;;;;;8.38;6.00;;;;;;;10.28;62.73;100344.50;4935765;28;20043;-82
2023/04/11 00:53:45;;;;;;;7.95;6.05;;;;;;;10.34;62.81;100346.97;4961151;28;20051;-80
2023/04/11 00:56:12;;;;;;;9.88;6.38;;;;;;;10.31;62.76;100341.75;4915884;29;20039;-81
2023/04/11 00:58:40;;;;;;;7.80;6.65;;;;;;;10.33;62.94;100332.03;4945183;29;20528;-80
2023/04/11 01:01:10;;;;;;;9.30;6.43;;;;;;;10.25;62.84;100329.56;4941321;29;20039;-80
2023/04/11 01:03:38;;;;;;;8.25;6.22;;;;;;;10.32;61.95;100325.00;4957014;28;20039;-80
2023/04/11 01:06:08;;;;;;;8.40;6.45;;;;;;;10.35;61.64;100309.97;4928660;29;20048;-82
2023/04/11 01:08:35;;;;;;;7.57;6.05;;;;;;;10.23;62.76;100310.25;4946061;28;20057;-82
2023/04/11 01:11:02;;;;;;;10.82;6.90;;;;;;;10.24;63.60;100303.22;4951287;28;20051;-82
2023/04/11 01:13:31;;;;;;;10.63;6.72;;;;;;;10.31;62.34;100295.09;4949611;28;20047;-82
2023/04/11 01:16:01;;;;;;;8.05;6.10;;;;;;;10.39;60.65;100297.56;4921709;29;20035;-82
2023/04/11 01:18:27;;;;;;;8.13;5.70;;;;;;;10.33;61.98;100290.63;4930151;29;20039;-82
2023/04/11 01:20:56;;;;;;;9.85;6.10;;;;;;;10.33;62.02;100284.50;4946866;29;20110;-83
2023/04/11 01:23:24;;;;;;;8.98;6.32;;;;;;;10.37;60.83;100275.59;4935193;29;20070;-82
2023/04/11 01:25:50;;;;;;;8.45;6.25;;;;;;;10.32;61.65;100269.56;4938950;29;20050;-83
2023/04/11 01:28:18;;;;;;;10.07;7.18;;;;;;;10.30;61.80;100272.25;4930119;29;20043;-81
2023/04/11 01:30:44;;;;;;;9.03;6.00;;;;;;;10.39;60.94;100265.88;4910994;29;20036;-82
2023/04/11 01:33:12;;;;;;;8.95;6.38;;;;;;;10.34;61.56;100262.47;4934578;29;20513;-82
2023/04/11 01:35:39;;;;;;;9.30;6.30;;;;;;;10.35;60.88;100258.94;4934224;28;20047;-81
2023/04/11 01:38:07;;;;;;;10.03;6.40;;;;;;;10.34;61.34;100259.81;4935141;29;20031;-82
2023/04/11 01:40:37;;;;;;;8.75;6.20;;;;;;;10.27;61.73;100255.63;4946554;28;20043;-83
2023/04/11 01:43:07;;;;;;;8.48;5.95;;;;;;;10.26;62.08;100245.97;4932850;29;20390;-82
2023/04/11 01:45:34;;;;;;;9.45;6.60;;;;;;;10.24;61.33;100240.72;4933458;28;20043;-83
2023/04/11 01:48:05;;;;;;;7.60;5.85;;;;;;;10.29;61.76;100225.63;4956398;28;20043;-81
2023/04/11 01:50:32;;;;;;;8.55;5.80;;;;;;;10.31;62.10;100221.16;4946613;29;20046;-84
2023/04/11 01:53:01;;;;;;;8.43;6.15;;;;;;;10.24;62.27;100213.44;4912570;29;20072;-83
2023/04/11 01:55:28;;;;;;;8.40;6.68;;;;;;;10.35;60.94;100217.56;4933725;29;20436;-82
2023/04/11 01:57:55;;;;;;;8.10;6.13;;;;;;;10.35;60.82;100206.13;4918916;29;20042;-82
2023/04/11 02:00:22;;;;;;;9.25;6.55;;;;;;;10.36;62.37;100194.66;4946407;29;20072;-82
2023/04/11 02:02:49;;;;;;;9.35;6.15;;;;;;;10.34;61.64;100191.16;4945688;28;20444;-81
2023/04/11 02:05:16;;;;;;;9.75;6.55;;;;;;;10.32;62.13;100187.72;4917232;28;20054;-81
2023/04/11 02:07:43;;;;;;;8.07;5.93;;;;;;;10.32;60.34;100177.16;4929709;29;20047;-81
2023/04/11 02:10:10;;;;;;;8.63;5.68;;;;;;;10.26;61.40;100177.34;4929506;29;20051;-82
2023/04/11 02:12:38;;;;;;;9.23;6.40;;;;;;;10.30;61.18;100171.06;4945758;28;20417;-81
2023/04/11 02:15:05;;;;;;;9.38;6.43;;;;;;;10.33;61.80;100173.59;4930467;29;20131;-81
2023/04/11 02:17:35;;;;;;;8.35;6.07;;;;;;;10.33;61.04;100178.88;4946565;29;20039;-81
2023/04/11 02:20:05;;;;;;;8.82;6.07;;;;;;;10.26;61.68;100162.38;4918742;29;20044;-80
2023/04/11 02:22:35;;;;;;;9.60;6.03;;;;;;;10.21;63.43;100166.00;4927758;29;20095;-83
2023/04/11 02:25:02;;;;;;;8.68;6.00;;;;;;;10.30;61.19;100156.06;4909970;29;20058;-79
2023/04/11 02:27:30;;;;;;;9.52;6.47;;;;;;;10.24;61.91;100155.38;4913862;29;20054;-81
2023/04/11 02:29:57;;;;;;;10.17;6.70;;;;;;;10.28;61.70;100151.75;4916302;28;20406;-81
2023/04/11 02:32:25;;;;;;;8.73;5.95;;;;;;;10.21;62.41;100150.16;4930922;29;20638;-81
2023/04/11 02:34:51;;;;;;;6.70;5.43;;;;;;;10.16;62.79;100145.84;4932305;29;20038;-81
2023/04/11 02:37:18;;;;;;;7.68;5.97;;;;;;;10.19;63.19;100136.13;4928041;29;20395;-80
2023/04/11 02:39:45;;;;;;;9.32;6.43;;;;;;;10.20;61.87;100132.59;4959732;28;20433;-82
2023/04/11 02:42:12;;;;;;;9.32;5.95;;;;;;;10.23;62.13;100125.47;4929363;29;20043;-81
2023/04/11 02:44:38;;;;;;;8.77;6.53;;;;;;;10.16;64.16;100114.16;4934337;29;20044;-80
2023/04/11 02:47:05;;;;;;;9.18;5.85;;;;;;;10.23;62.66;100109.63;4947957;28;20043;-80
2023/04/11 02:49:32;;;;;;;8.80;5.97;;;;;;;10.23;62.30;100119.31;4961952;28;20135;-82
2023/04/11 02:51:58;;;;;;;8.88;6.03;;;;;;;10.24;61.50;100121.06;4948052;28;20042;-80
2023/04/11 02:54:27;;;;;;;9.45;6.68;;;;;;;10.20;63.00;100120.25;4931870;29;20651;-81
2023/04/11 02:56:54;;;;;;;9.85;6.65;;;;;;;10.11;63.25;100108.16;4942334;28;20052;-80
2023/04/11 02:59:21;;;;;;;8.60;5.88;;;;;;;10.10;63.97;100114.34;4927543;29;20109;-79
2023/04/11 03:01:48;;;;;;;9.00;6.30;;;;;;;10.15;63.24;100108.94;4927936;28;20515;-80
2023/04/11 03:04:16;;;;;;;10.07;6.93;;;;;;;10.16;61.75;100106.25;4915475;29;20048;-80
2023/04/11 03:06:43;;;;;;;19.40;7.88;;;;;;;10.22;62.76;100101.72;4948079;28;20055;-82
2023/04/11 03:09:10;;;;;;;9.38;6.22;;;;;;;10.14;63.35;100100.16;4926995;29;20043;-80
2023/04/11 03:11:37;;;;;;;8.98;6.75;;;;;;;10.11;63.05;100105.53;4943120;28;20035;-80
2023/04/11 03:14:04;;;;;;;9.53;6.17;;;;;;;10.18;62.79;100100.94;4915816;29;20050;-82
2023/04/11 03:16:31;;;;;;;9.48;6.35;;;;;;;10.06;64.17;100109.19;4944768;29;20043;-81
2023/04/11 03:19:01;;;;;;;8.93;7.10;;;;;;;10.14;62.77;100099.28;4933937;29;20050;-82
2023/04/11 03:21:28;;;;;;;10.30;6.82;;;;;;;10.11;63.23;100097.63;4924954;29;20070;-80
2023/04/11 03:23:54;;;;;;;7.78;5.80;;;;;;;10.03;63.98;100091.69;4945735;28;20057;-82
2023/04/11 03:26:25;;;;;;;8.23;5.93;;;;;;;10.01;64.62;100095.28;4919950;29;20050;-81
2023/04/11 03:28:53;;;;;;;9.83;6.27;;;;;;;10.00;64.82;100093.50;4922971;29;20927;-81
2023/04/11 03:31:20;;;;;;;10.52;6.55;;;;;;;9.96;64.64;100079.56;4934213;28;20126;-81
2023/04/11 03:33:47;;;;;;;11.48;7.07;;;;;;;9.91;65.11;100076.16;4902753;29;20110;-82
2023/04/11 03:36:14;;;;;;;9.45;6.68;;;;;;;9.92;65.90;100080.56;4915194;29;20636;-82
2023/04/11 03:38:40;;;;;;;12.18;6.80;;;;;;;9.84;65.87;100087.81;4931874;29;20078;-80
2023/04/11 03:41:07;;;;;;;10.27;7.07;;;;;;;9.88;65.46;100081.53;4913011;29;20757;-82
2023/04/11 03:43:34;;;;;;;10.50;6.37;;;;;;;9.90;65.41;100081.47;4947924;28;20102;-81
2023/04/11 03:46:03;;;;;;;10.13;6.60;;;;;;;9.88;65.93;100069.19;4920305;29;20075;-81
2023/04/11 03:48:32;;;;;;;10.23;7.05;;;;;;;9.83;66.38;100068.44;4918750;29;20122;-80
2023/04/11 03:50:59;;;;;;;11.30;6.95;;;;;;;9.75;66.89;100072.19;4932512;28;20468;-82
2023/04/11 03:53:25;;;;;;;10.03;7.17;;;;;;;9.86;66.29;100067.53;4933508;28;20051;-82
2023/04/11 03:55:53;;;;;;;8.10;6.35;;;;;;;9.78;67.59;100065.09;4931027;28;20400;-83
2023/04/11 03:58:20;;;;;;;8.20;6.37;;;;;;;9.80;66.79;100062.41;4932358;29;21815;-82
2023/04/11 04:00:47;;;;;;;9.75;6.97;;;;;;;9.74;67.71;100059.91;4910821;28;20130;-81
2023/04/11 04:03:13;;;;;;;9.40;6.80;;;;;;;9.78;67.28;100051.03;4939977;28;20241;-81
2023/04/11 04:05:40;;;;;;;10.67;6.87;;;;;;;9.73;68.06;100051.13;4934638;28;20051;-81
2023/04/11 04:08:07;;;;;;;9.03;6.63;;;;;;;9.78;71.71;100046.63;4938463;28;20050;-83
2023/04/11 04:10:34;;;;;;;9.68;6.45;;;;;;;9.79;71.17;100056.25;4916197;28;20127;-82
2023/04/11 04:13:00;;;;;;;8.75;7.30;;;;;;;9.69;75.55;100052.16;4942280;29;20039;-82
2023/04/11 04:15:27;;;;;;;9.63;6.30;;;;;;;9.60;77.41;100055.03;4928072;29;20105;-81
2023/04/11 04:17:54;;;;;;;11.23;6.57;;;;;;;9.63;81.45;100054.06;4929679;29;20052;-82
2023/04/11 04:20:20;;;;;;;11.57;7.30;;;;;;;9.45;85.65;100061.56;4930318;29;20046;-82
2023/04/11 04:22:47;;;;;;;10.33;6.40;;;;;;;9.39;88.31;100052.94;4908395;29;20106;-81
2023/04/11 04:25:14;;;;;;;9.30;7.18;;;;;;;9.29;89.20;100060.19;4948410;28;20054;-83
2023/04/11 04:27:43;;;;;;;11.70;7.30;;;;;;;9.20;90.24;100050.75;4928003;28;20213;-82
2023/04/11 04:30:14;;;;;;;11.43;7.40;;;;;;;9.17;92.09;100049.97;4942273;28;20035;-82
2023/04/11 04:32:42;;;;;;;10.73;7.23;;;;;;;9.10;94.96;100046.63;4917999;28;20047;-81
2023/04/11 04:35:10;;;;;;;11.20;7.33;;;;;;;9.08;98.26;100045.78;4933933;29;20079;-81
2023/04/11 04:37:38;;;;;;;10.93;8.17;;;;;;;8.93;99.47;100049.66;4937660;29;20146;-82
2023/04/11 04:40:12;;;;;;;12.07;8.07;;;;;;;8.85;100.00;100038.44;4927902;28;20499;-82
2023/04/11 04:42:42;;;;;;;13.10;7.93;;;;;;;8.80;100.00;100042.06;4929460;29;20062;-82
2023/04/11 04:45:10;;;;;;;11.20;7.63;;;;;;;8.79;100.00;100045.59;4911255;29;20043;-82
2023/04/11 04:47:37;;;;;;;12.37;8.00;;;;;;;8.74;100.00;100045.69;4947467;28;20054;-82
2023/04/11 04:50:04;;;;;;;10.37;8.20;;;;;;;8.71;100.00;100035.25;4945079;29;20472;-82
2023/04/11 04:52:31;;;;;;;10.17;7.23;;;;;;;8.75;100.00;100029.03;4936376;28;20122;-81
2023/04/11 04:54:58;;;;;;;11.10;8.13;;;;;;;8.67;100.00;100041.50;4931958;28;20047;-82
2023/04/11 04:57:26;;;;;;;10.97;7.57;;;;;;;8.73;100.00;100041.34;4917516;29;20047;-82
2023/04/11 04:59:54;;;;;;;12.17;8.37;;;;;;;8.72;100.00;100037.84;4929384;29;20046;-82
2023/04/11 05:02:21;;;;;;;10.87;7.50;;;;;;;8.65;100.00;100036.22;4915109;28;20039;-81
2023/04/11 05:04:49;;;;;;;11.37;7.27;;;;;;;8.70;100.00;100022.97;4912516;29;20054;-81
2023/04/11 05:07:17;;;;;;;12.07;8.30;;;;;;;8.61;100.00;100016.16;4927937;29;20054;-82
2023/04/11 05:09:43;;;;;;;10.37;6.93;;;;;;;8.54;100.00;100035.63;4915964;29;20052;-83
2023/04/11 05:12:10;;;;;;;11.20;8.20;;;;;;;8.53;100.00;100030.41;4933500;28;20047;-82
2023/04/11 05:14:37;;;;;;;10.17;7.60;;;;;;;8.45;100.00;100030.56;4930466;29;20043;-83
2023/04/11 05:17:04;;;;;;;12.07;7.80;;;;;;;8.45;100.00;100038.47;4916964;29;20051;-82
2023/04/11 05:19:31;;;;;;;11.17;7.77;;;;;;;8.40;100.00;100035.91;4917837;29;20043;-83
2023/04/11 05:21:57;;;;;;;11.10;7.63;;;;;;;8.37;100.00;100045.66;4947530;29;20036;-82
2023/04/11 05:24:24;;;;;;;9.90;7.77;;;;;;;8.34;100.00;100053.59;4917934;29;20044;-82
2023/04/11 05:26:51;;;;;;;13.00;8.23;;;;;;;8.35;100.00;100050.94;4930414;29;20109;-81
2023/04/11 05:29:18;;;;;;;11.60;7.50;;;;;;;8.34;100.00;100057.09;4946975;28;20051;-82
2023/04/11 05:31:44;;;;;;;12.37;8.50;;;;;;;8.29;100.00;100042.28;4950355;28;20043;-82
2023/04/11 05:34:11;;;;;;;11.07;7.70;;;;;;;8.20;100.00;100045.97;4919986;28;20043;-82
2023/04/11 05:36:38;;;;;;;14.17;8.70;;;;;;;8.17;100.00;100046.03;4919165;29;20098;-82
2023/04/11 05:39:04;;;;;;;13.63;7.97;;;;;;;8.15;100.00;100040.78;4927005;28;20561;-81
2023/04/11 05:41:31;;;;;;;13.13;8.70;;;;;;;8.13;100.00;100033.84;4930382;29;20067;-83
2023/04/11 05:43:58;;;;;;;13.00;8.53;;;;;;;8.07;100.00;100033.94;4919640;29;20054;-82
2023/04/11 05:46:26;;;;;;;12.70;8.60;;;;;;;8.01;100.00;100020.94;4932079;29;20082;-82
2023/04/11 05:48:53;;;;;;;14.40;8.33;;;;;;;7.99;100.00;100014.81;4920763;29;20135;-82
2023/04/11 05:51:19;;;;;;;13.43;8.07;;;;;;;8.06;100.00;100008.53;4933138;29;20054;-80
2023/04/11 05:53:46;;;;;;;13.37;8.77;;;;;;;7.97;100.00;100014.84;4931358;28;20515;-80
2023/04/11 05:56:13;;;;;;;13.73;8.53;;;;;;;7.94;100.00;100014.06;4947340;29;20161;-81
2023/04/11 05:58:41;;;;;;;31.10;18.07;;;;;;;7.95;100.00;100021.91;4931639;29;20049;-79
2023/04/11 06:01:13;;;;;;;22.33;13.93;;;;;;;7.93;100.00;100034.25;4945413;28;20411;-79
2023/04/11 06:03:39;;;;;;;15.47;10.53;;;;;;;7.89;100.00;100032.56;4950660;28;20035;-79
2023/04/11 06:06:07;;;;;;;13.17;9.00;;;;;;;7.91;100.00;100030.78;4912918;29;20043;-79
2023/04/11 06:08:33;;;;;;;13.57;8.63;;;;;;;7.93;100.00;100030.75;4929618;29;20145;-80
2023/04/11 06:11:00;;;;;;;14.77;9.60;;;;;;;7.93;100.00;100038.63;4928197;29;20051;-80
2023/04/11 06:13:26;;;;;;;14.13;8.90;;;;;;;8.01;100.00;100045.47;4949195;29;20039;-80
2023/04/11 06:15:53;;;;;;;15.07;9.53;;;;;;;8.00;100.00;100042.88;4952178;28;20043;-81
2023/04/11 06:18:20;;;;;;;14.87;9.33;;;;;;;7.97;100.00;100035.91;4920082;29;20079;-81
2023/04/11 06:20:48;;;;;;;13.10;8.83;;;;;;;7.99;100.00;100038.50;4952752;29;20077;-81
2023/04/11 06:23:15;;;;;;;13.67;9.03;;;;;;;8.03;100.00;100034.91;4961903;28;20123;-81
2023/04/11 06:25:41;;;;;;;15.13;9.40;;;;;;;8.13;100.00;100033.84;4950553;28;20078;-81
2023/04/11 06:28:08;;;;;;;12.97;9.00;;;;;;;8.14;100.00;100044.31;4919189;28;20102;-79
2023/04/11 06:30:35;;;;;;;16.40;9.50;;;;;;;8.17;100.00;100036.38;4962654;28;20039;-80
2023/04/11 06:33:01;;;;;;;15.00;9.67;;;;;;;8.17;100.00;100046.91;4935212;29;20043;-80
2023/04/11 06:35:28;;;;;;;15.83;9.67;;;;;;;8.26;100.00;100037.09;4935643;29;20039;-82
2023/04/11 06:37:55;;;;;;;15.93;10.23;;;;;;;8.21;100.00;100041.56;4952097;28;20048;-80
2023/04/11 06:40:21;;;;;;;17.00;10.07;;;;;;;8.32;100.00;100034.31;4936717;28;20047;-81
2023/04/11 06:42:48;;;;;;;14.67;9.87;;;;;;;8.38;100.00;100042.97;4947663;28;20043;-81
2023/04/11 06:45:15;;;;;;;13.77;9.53;;;;;;;8.33;100.00;100022.91;4947291;28;20039;-80
2023/04/11 06:47:42;;;;;;;14.50;9.90;;;;;;;8.42;100.00;100025.38;4935573;28;20139;-81
2023/04/11 06:50:09;;;;;;;13.83;8.60;;;;;;;8.51;100.00;100029.56;4916950;29;20043;-80
2023/04/11 06:52:36;;;;;;;14.90;9.10;;;;;;;8.53;100.00;100020.72;4952620;28;20704;-82
2023/04/11 06:55:03;;;;;;;14.70;9.63;;;;;;;8.53;100.00;100031.25;4958060;28;20105;-81
2023/04/11 06:57:29;;;;;;;12.97;8.87;;;;;;;8.61;100.00;100031.94;4949471;28;20043;-81
2023/04/11 06:59:56;;;;;;;12.87;8.43;;;;;;;8.60;100.00;100029.34;4922060;29;20043;-82
2023/04/11 07:02:24;;;;;;;13.43;8.10;;;;;;;8.52;100.00;100033.94;4979954;28;20027;-81
2023/04/11 07:04:51;;;;;;;15.27;9.10;;;;;;;8.61;100.00;100034.59;4956916;28;20071;-81
2023/04/11 07:07:18;;;;;;;12.97;7.87;;;;;;;8.63;100.00;100027.50;4935954;29;20061;-80
2023/04/11 07:09:46;;;;;;;13.67;8.80;;;;;;;8.62;100.00;100035.44;4954230;28;20063;-81
2023/04/11 07:12:13;;;;;;;14.43;8.90;;;;;;;8.53;100.00;100036.53;4955921;28;20492;-81
2023/04/11 07:14:40;;;;;;;13.17;8.20;;;;;;;8.61;100.00;100037.22;4937258;29;20051;-80
2023/04/11 07:17:07;;;;;;;15.20;9.47;;;;;;;8.53;100.00;100041.78;4953721;28;20047;-81
2023/04/11 07:19:33;;;;;;;16.73;9.63;;;;;;;8.57;100.00;100043.44;4950400;28;20415;-79
2023/04/11 07:22:00;;;;;;;14.80;8.73;;;;;;;8.54;100.00;100035.63;4947256;28;20043;-80
2023/04/11 07:24:29;;;;;;;12.63;8.63;;;;;;;8.59;100.00;100035.53;4928977;29;20043;-80
2023/04/11 07:26:57;;;;;;;15.43;9.47;;;;;;;8.64;100.00;100033.63;4928767;29;20051;-81
2023/04/11 07:29:24;;;;;;;14.93;9.43;;;;;;;8.62;100.00;100032.81;4965143;28;20055;-81
2023/04/11 07:31:52;;;;;;;14.20;9.40;;;;;;;8.60;100.00;100034.63;4934561;29;20685;-80
2023/04/11 07:34:18;;;;;;;13.43;7.93;;;;;;;8.63;100.00;100031.91;4934591;29;20062;-80
2023/04/11 07:36:45;;;;;;;13.63;8.53;;;;;;;8.72;100.00;100029.94;4949307;28;20615;-81
2023/04/11 07:39:13;;;;;;;13.83;9.17;;;;;;;8.87;100.00;100036.63;4953482;28;20051;-80
2023/04/11 07:41:40;;;;;;;17.03;10.77;;;;;;;8.85;100.00;100040.19;4943665;29;20058;-81
2023/04/11 07:44:08;;;;;;;11.70;8.17;;;;;;;8.83;100.00;100031.44;4948663;29;20098;-81
2023/04/11 07:46:35;;;;;;;14.03;8.90;;;;;;;8.92;100.00;100037.38;4933972;29;20067;-79
2023/04/11 07:49:01;;;;;;;12.33;8.10;;;;;;;8.91;100.00;100040.03;4950070;29;20062;-80
2023/04/11 07:51:28;;;;;;;12.90;8.93;;;;;;;8.94;100.00;100040.84;4954241;28;20054;-79
2023/04/11 07:53:55;;;;;;;13.87;8.27;;;;;;;8.95;100.00;100039.94;4914682;29;20122;-80
2023/04/11 07:56:22;;;;;;;17.80;10.40;;;;;;;8.97;100.00;100038.13;4928103;29;20052;-79
2023/04/11 07:58:48;;;;;;;29.67;14.97;;;;;;;9.15;100.00;100038.59;4950556;28;20138;-80
2023/04/11 08:01:19;;;;;;;15.80;10.17;;;;;;;9.21;100.00;100035.81;4945945;28;20043;-80
2023/04/11 08:03:46;;;;;;;13.83;9.80;;;;;;;9.27;100.00;100046.22;4933236;28;20041;-80
2023/04/11 08:06:13;;;;;;;11.83;8.27;;;;;;;9.28;100.00;100045.28;4915225;29;20424;-80
2023/04/11 08:08:40;;;;;;;13.40;8.70;;;;;;;9.32;100.00;100052.22;4953472;28;20050;-80
2023/04/11 08:11:07;;;;;;;10.13;7.37;;;;;;;9.32;100.00;100050.44;4951472;28;20043;-79
2023/04/11 08:13:33;;;;;;;11.20;7.57;;;;;;;9.32;100.00;100045.16;4933227;29;20035;-81
2023/04/11 08:16:03;;;;;;;10.10;7.37;;;;;;;9.34;100.00;100039.88;4933388;29;20066;-80
2023/04/11 08:18:30;;;;;;;12.03;6.63;;;;;;;9.18;100.00;100039.38;4929733;29;20496;-80
2023/04/11 08:20:57;;;;;;;11.47;7.80;;;;;;;9.14;100.00;100040.34;4955495;28;20063;-80
2023/04/11 08:23:24;;;;;;;10.27;6.93;;;;;;;9.14;100.00;100035.09;4948707;29;20032;-80
2023/04/11 08:25:51;;;;;;;11.73;7.97;;;;;;;9.27;100.00;100041.78;4934900;28;20047;-80
2023/04/11 08:28:18;;;;;;;10.93;8.23;;;;;;;9.21;100.00;100043.72;4935741;28;20035;-81
2023/04/11 08:30:44;;;;;;;10.63;6.77;;;;;;;9.24;100.00;100046.25;4934569;29;20780;-81
2023/04/11 08:33:11;;;;;;;8.87;6.73;;;;;;;9.31;100.00;100051.34;4921562;29;20098;-79
2023/04/11 08:35:41;;;;;;;10.87;6.87;;;;;;;9.42;100.00;100059.00;4948675;28;20394;-81
2023/04/11 08:38:08;;;;;;;9.13;6.13;;;;;;;9.38;100.00;100059.09;4937189;29;20043;-81
2023/04/11 08:40:35;;;;;;;8.37;6.07;;;;;;;9.38;100.00;100054.69;4967586;28;20035;-80
2023/04/11 08:43:08;;;;;;;9.53;6.07;;;;;;;9.42;100.00;100053.72;4947698;29;20043;-80
2023/04/11 08:45:35;;;;;;;11.37;5.83;;;;;;;9.46;100.00;100046.59;4963889;28;20050;-80
2023/04/11 08:48:02;;;;;;;7.83;5.40;;;;;;;9.39;100.00;100051.16;4955266;28;20042;-82
2023/04/11 08:50:29;;;;;;;10.03;5.87;;;;;;;9.33;100.00;100056.56;4952697;28;20274;-80
2023/04/11 08:53:00;;;;;;;8.00;5.03;;;;;;;9.31;100.00;100061.03;4938124;29;20412;-82
2023/04/11 08:55:27;;;;;;;8.87;6.60;;;;;;;9.36;100.00;100059.16;4954087;28;20047;-82
2023/04/11 08:57:57;;;;;;;8.20;5.83;;;;;;;9.25;100.00;100051.53;4939932;29;20528;-80
2023/04/11 09:00:27;;;;;;;9.10;6.07;;;;;;;9.39;100.00;100055.56;4967860;28;20039;-82
2023/04/11 09:03:02;;;;;;;9.20;5.73;;;;;;;9.32;100.00;100058.34;4935586;29;20456;-81
2023/04/11 09:05:32;;;;;;;7.47;5.83;;;;;;;9.31;100.00;100055.75;4931717;29;20060;-80
2023/04/11 09:08:02;;;;;;;8.27;6.30;;;;;;;9.40;100.00;100066.06;4951819;29;20607;-82
2023/04/11 09:10:29;;;;;;;12.00;6.90;;;;;;;9.51;100.00;100071.94;4955226;29;20066;-81
2023/04/11 09:12:56;;;;;;;8.67;6.07;;;;;;;9.57;100.00;100060.34;4947383;28;20059;-82
2023/04/11 09:15:26;;;;;;;10.83;6.57;;;;;;;9.68;100.00;100070.66;4963756;28;20049;-82
2023/04/11 09:17:53;;;;;;;11.73;6.37;;;;;;;9.74;100.00;100067.84;4965431;28;20043;-82
2023/04/11 09:20:24;;;;;;;7.80;4.77;;;;;;;9.91;100.00;100070.88;4921524;29;20174;-80
2023/04/11 09:22:52;;;;;;;10.87;6.63;;;;;;;9.95;100.00;100066.41;4939064;29;20039;-81
2023/04/11 09:25:20;;;;;;;10.33;7.90;;;;;;;10.07;100.00;100069.56;4950463;28;20035;-81
2023/04/11 09:27:47;;;;;;;11.23;5.80;;;;;;;10.10;100.00;100072.13;4932749;29;20051;-82
2023/04/11 09:30:32;;;;;;;9.63;5.10;;;;;;;10.12;100.00;100066.81;4937955;29;20039;-83
2023/04/11 09:33:22;;;;;;;8.67;4.80;;;;;;;10.13;100.00;100069.41;4937965;28;20032;-81
2023/04/11 09:35:51;;;;;;;6.22;4.22;;;;;;;10.13;100.00;100066.75;4962777;28;20039;-82
2023/04/11 09:38:30;;;;;;;8.10;4.00;;;;;;;10.22;100.00;100063.03;4951838;28;20047;-85
2023/04/11 09:40:57;;;;;;;5.63;3.72;;;;;;;10.24;100.00;100068.25;4936775;29;20071;-82
2023/04/11 09:43:25;;;;;;;4.65;3.33;;;;;;;10.21;100.00;100063.91;4936050;28;20042;-82
2023/04/11 09:46:08;;;;;;;6.25;3.47;;;;;;;10.32;100.00;100058.34;4924718;28;20110;-81
2023/04/11 09:48:36;;;;;;;6.47;3.65;;;;;;;10.37;100.00;100054.66;4934795;28;20043;-82
2023/04/11 09:51:13;;;;;;;8.27;5.15;;;;;;;10.46;100.00;100061.44;4952964;28;20566;-82
2023/04/11 09:54:00;;;;;;;4.55;3.35;;;;;;;10.48;100.00;100062.25;4940132;29;20075;-83
2023/04/11 09:56:27;;;;;;;5.75;2.70;;;;;;;10.58;100.00;100062.84;4920464;29;20087;-82
2023/04/11 09:58:55;;;;;;;7.70;2.70;;;;;;;10.60;100.00;100058.41;4937485;28;20053;-82
2023/04/11 10:01:23;;;;;;;4.88;3.75;;;;;;;10.71;100.00;100062.44;4925604;29;20433;-82
2023/04/11 10:03:51;;;;;;;7.07;3.00;;;;;;;10.83;100.00;100070.91;4936197;29;20039;-82
2023/04/11 10:06:32;;;;;;;4.28;2.83;;;;;;;10.91;100.00;100066.22;4938820;29;20071;-81
2023/04/11 10:09:18;;;;;;;12.75;7.63;;;;;;;10.89;100.00;100065.44;4937688;29;20065;-82
2023/04/11 10:11:45;;;;;;;12.18;8.00;;;;;;;10.93;100.00;100067.94;4938450;29;20051;-83
2023/04/11 10:14:37;;;;;;;6.82;3.40;;;;;;;10.87;100.00;100057.56;4940627;29;20109;-83
2023/04/11 10:17:17;;;;;;;8.35;3.05;;;;;;;10.85;100.00;100056.75;4934283;29;20044;-82
2023/04/11 10:19:50;;;;;;;;;;;;;;;11.24;100.00;100069.59;4940976;29;20094;-81
2023/04/11 10:22:49;;;;;;;10.55;3.20;;;;;;;11.68;100.00;100062.78;4943246;29;19994;-82
2023/04/11 10:25:20;;;;;;;6.97;2.58;;;;;;;11.98;100.00;100058.25;4937275;29;20070;-82
2023/04/11 10:27:48;;;;;;;3.83;2.05;;;;;;;12.08;100.00;100057.00;4922925;29;20047;-81
2023/04/11 10:30:15;;;;;;;6.57;3.03;;;;;;;12.10;96.10;100052.50;4964247;28;20040;-81
2023/04/11 10:33:10;;;;;;;5.20;2.45;;;;;;;12.04;95.43;100050.09;4941067;29;20051;-80
2023/04/11 10:35:57;;;;;;;9.35;2.90;;;;;;;12.01;93.68;100047.53;4956469;28;20126;-82
2023/04/11 10:38:36;;;;;;;3.60;2.50;;;;;;;12.05;94.92;100051.81;4949133;29;20067;-81
2023/04/11 10:41:21;;;;;;;4.43;2.53;;;;;;;12.08;92.01;100049.06;4958083;28;20175;-81
2023/04/11 10:43:48;;;;;;;5.78;2.35;;;;;;;12.25;95.65;100050.22;4952188;29;20039;-81
2023/04/11 10:46:20;;;;;;;6.53;2.58;;;;;;;12.03;86.48;100050.16;4954100;28;20036;-82
2023/04/11 10:48:59;;;;;;;7.60;2.42;;;;;;;12.14;90.44;100047.13;4941458;29;20066;-80
2023/04/11 10:51:31;;;;;;;5.22;2.58;;;;;;;12.10;89.91;100052.50;4954529;28;20053;-81
2023/04/11 10:54:01;;;;;;;6.15;2.90;;;;;;;11.96;91.67;100046.00;4935126;29;20374;-82
2023/04/11 10:56:53;;;;;;;5.55;2.95;;;;;;;11.77;94.92;100078.38;4935201;29;20043;-81
2023/04/11 10:59:35;;;;;;;5.15;3.05;;;;;;;11.34;99.45;100070.13;4945968;28;20576;-80
2023/04/11 11:02:02;;;;;;;5.65;3.10;;;;;;;11.08;100.00;100068.34;4934079;29;20050;-81
2023/04/11 11:04:33;;;;;;;4.25;2.00;;;;;;;10.59;99.87;100052.22;4936629;29;20039;-80
2023/04/11 11:07:03;;;;;;;7.43;2.17;;;;;;;10.33;100.00;100052.13;4950731;29;20047;-80
2023/04/11 11:09:33;;;;;;;5.72;2.58;;;;;;;10.30;100.00;100042.53;4948879;28;20035;-80
2023/04/11 11:12:10;;;;;;;7.32;4.35;;;;;;;10.12;100.00;100058.88;4926362;29;20047;-81
2023/04/11 11:14:39;;;;;;;4.75;2.72;;;;;;;10.14;100.00;100054.41;4945286;28;20487;-81
2023/04/11 11:17:06;;;;;;;3.80;2.70;;;;;;;10.21;100.00;100055.97;4960380;29;20035;-81
2023/04/11 11:19:34;;;;;;;5.15;2.17;;;;;;;10.39;100.00;100058.13;4942779;29;20107;-81
2023/04/11 11:22:05;;;;;;;4.32;2.25;;;;;;;10.80;100.00;100063.94;4945090;29;20050;-82
2023/04/11 11:24:34;;;;;;;3.65;2.53;;;;;;;11.22;100.00;100060.84;4954796;28;20035;-81
2023/04/11 11:27:01;;;;;;;2.80;1.75;;;;;;;11.64;100.00;100065.63;4958350;28;20049;-81
2023/04/11 11:29:37;;;;;;;3.22;2.00;;;;;;;12.06;100.00;100052.69;4942784;29;20047;-82